<?xml version="1.0" encoding="UTF-8" standalone="no" ?>
<gpx xmlns="http://www.topografix.com/GPX/1/1" xmlns:xsi="http://www.w3.org/2001/XMLSchema-instance" xsi:schemaLocation="http://www.topografix.com/GPX/1/1 http://www.topografix.com/GPX/1/1/gpx.xsd" version="1.1" creator="VisuGPX - https://www.visugpx.com">
  <metadata>
    <name>Le Lac Blanc à partir de la Flégère</name>
    <desc><![CDATA[9eme partie arrivée là fleurée par col des montets Vallorcines]]></desc>
  </metadata>
  <wpt lat="45.96858" lon="6.87264">
    <ele>2399</ele>
    <name><![CDATA[Arrivée de la remontée mécanique de la Flégère]]></name>
  </wpt>
  <wpt lat="45.97431" lon="6.88741">
    <ele>2243</ele>
    <name><![CDATA[Tête d'Aubuy]]></name>
  </wpt>
  <wpt lat="45.98337" lon="6.90451">
    <ele>2171</ele>
    <name><![CDATA[Prenez à droite au >]]></name>
  </wpt>
  <wpt lat="45.98247" lon="6.90654">
    <ele>2118</ele>
    <name><![CDATA[Vous rejoignez le TMB, prenez à droite]]></name>
  </wpt>
  <trk>
    <name><![CDATA[Le Lac Blanc à partir de la Flégère]]></name>
    <trkseg>
      <trkpt lat="45.96858" lon="6.87264">
        <ele>2399</ele>
        <time>2021-05-11T15:23:24+02:00</time>
      </trkpt>
      <trkpt lat="45.9687" lon="6.87294">
        <ele>2396</ele>
        <time>2021-05-11T15:23:29+02:00</time>
      </trkpt>
      <trkpt lat="45.96863" lon="6.87344">
        <ele>2388</ele>
        <time>2021-05-11T15:23:34+02:00</time>
      </trkpt>
      <trkpt lat="45.96861" lon="6.87376">
        <ele>2384</ele>
        <time>2021-05-11T15:23:39+02:00</time>
      </trkpt>
      <trkpt lat="45.96882" lon="6.8741">
        <ele>2384</ele>
        <time>2021-05-11T15:23:44+02:00</time>
      </trkpt>
      <trkpt lat="45.96908" lon="6.87428">
        <ele>2387</ele>
        <time>2021-05-11T15:23:49+02:00</time>
      </trkpt>
      <trkpt lat="45.96921" lon="6.87448">
        <ele>2386</ele>
        <time>2021-05-11T15:23:54+02:00</time>
      </trkpt>
      <trkpt lat="45.96931" lon="6.8748">
        <ele>2381</ele>
        <time>2021-05-11T15:23:59+02:00</time>
      </trkpt>
      <trkpt lat="45.96956" lon="6.87519">
        <ele>2375</ele>
        <time>2021-05-11T15:24:04+02:00</time>
      </trkpt>
      <trkpt lat="45.97014" lon="6.87566">
        <ele>2364</ele>
        <time>2021-05-11T15:24:09+02:00</time>
      </trkpt>
      <trkpt lat="45.97034" lon="6.87603">
        <ele>2363</ele>
        <time>2021-05-11T15:24:14+02:00</time>
      </trkpt>
      <trkpt lat="45.97054" lon="6.87632">
        <ele>2366</ele>
        <time>2021-05-11T15:24:19+02:00</time>
      </trkpt>
      <trkpt lat="45.97034" lon="6.87735">
        <ele>2355</ele>
        <time>2021-05-11T15:24:24+02:00</time>
      </trkpt>
      <trkpt lat="45.97018" lon="6.87769">
        <ele>2345</ele>
        <time>2021-05-11T15:24:29+02:00</time>
      </trkpt>
      <trkpt lat="45.97027" lon="6.87804">
        <ele>2331</ele>
        <time>2021-05-11T15:24:34+02:00</time>
      </trkpt>
      <trkpt lat="45.97058" lon="6.87819">
        <ele>2325</ele>
        <time>2021-05-11T15:24:39+02:00</time>
      </trkpt>
      <trkpt lat="45.97107" lon="6.87832">
        <ele>2324</ele>
        <time>2021-05-11T15:24:44+02:00</time>
      </trkpt>
      <trkpt lat="45.97134" lon="6.87885">
        <ele>2314</ele>
        <time>2021-05-11T15:24:49+02:00</time>
      </trkpt>
      <trkpt lat="45.97161" lon="6.87881">
        <ele>2322</ele>
        <time>2021-05-11T15:24:54+02:00</time>
      </trkpt>
      <trkpt lat="45.97204" lon="6.87922">
        <ele>2328</ele>
        <time>2021-05-11T15:24:59+02:00</time>
      </trkpt>
      <trkpt lat="45.97234" lon="6.87954">
        <ele>2331</ele>
        <time>2021-05-11T15:25:04+02:00</time>
      </trkpt>
      <trkpt lat="45.97256" lon="6.87956">
        <ele>2339</ele>
        <time>2021-05-11T15:25:09+02:00</time>
      </trkpt>
      <trkpt lat="45.97303" lon="6.87993">
        <ele>2342</ele>
        <time>2021-05-11T15:25:14+02:00</time>
      </trkpt>
      <trkpt lat="45.97347" lon="6.88023">
        <ele>2342</ele>
        <time>2021-05-11T15:25:19+02:00</time>
      </trkpt>
      <trkpt lat="45.97379" lon="6.88051">
        <ele>2337</ele>
        <time>2021-05-11T15:25:24+02:00</time>
      </trkpt>
      <trkpt lat="45.97407" lon="6.88087">
        <ele>2330</ele>
        <time>2021-05-11T15:25:29+02:00</time>
      </trkpt>
      <trkpt lat="45.97432" lon="6.88141">
        <ele>2299</ele>
        <time>2021-05-11T15:25:34+02:00</time>
      </trkpt>
      <trkpt lat="45.97446" lon="6.88139">
        <ele>2301</ele>
        <time>2021-05-11T15:25:39+02:00</time>
      </trkpt>
      <trkpt lat="45.97465" lon="6.88147">
        <ele>2298</ele>
        <time>2021-05-11T15:25:44+02:00</time>
      </trkpt>
      <trkpt lat="45.97483" lon="6.88169">
        <ele>2291</ele>
        <time>2021-05-11T15:25:49+02:00</time>
      </trkpt>
      <trkpt lat="45.97508" lon="6.88171">
        <ele>2293</ele>
        <time>2021-05-11T15:25:54+02:00</time>
      </trkpt>
      <trkpt lat="45.97526" lon="6.88183">
        <ele>2290</ele>
        <time>2021-05-11T15:25:59+02:00</time>
      </trkpt>
      <trkpt lat="45.97537" lon="6.88224">
        <ele>2282</ele>
        <time>2021-05-11T15:26:04+02:00</time>
      </trkpt>
      <trkpt lat="45.9754" lon="6.8832">
        <ele>2275</ele>
        <time>2021-05-11T15:26:09+02:00</time>
      </trkpt>
      <trkpt lat="45.97548" lon="6.88348">
        <ele>2279</ele>
        <time>2021-05-11T15:26:14+02:00</time>
      </trkpt>
      <trkpt lat="45.97543" lon="6.88415">
        <ele>2281</ele>
        <time>2021-05-11T15:26:19+02:00</time>
      </trkpt>
      <trkpt lat="45.97526" lon="6.88451">
        <ele>2279</ele>
        <time>2021-05-11T15:26:24+02:00</time>
      </trkpt>
      <trkpt lat="45.97505" lon="6.88503">
        <ele>2280</ele>
        <time>2021-05-11T15:26:29+02:00</time>
      </trkpt>
      <trkpt lat="45.9748" lon="6.8852">
        <ele>2272</ele>
        <time>2021-05-11T15:26:34+02:00</time>
      </trkpt>
      <trkpt lat="45.9747" lon="6.88544">
        <ele>2269</ele>
        <time>2021-05-11T15:26:39+02:00</time>
      </trkpt>
      <trkpt lat="45.97455" lon="6.88568">
        <ele>2262</ele>
        <time>2021-05-11T15:26:44+02:00</time>
      </trkpt>
      <trkpt lat="45.97458" lon="6.88616">
        <ele>2261</ele>
        <time>2021-05-11T15:26:49+02:00</time>
      </trkpt>
      <trkpt lat="45.97443" lon="6.88674">
        <ele>2248</ele>
        <time>2021-05-11T15:26:54+02:00</time>
      </trkpt>
      <trkpt lat="45.97431" lon="6.88741">
        <ele>2243</ele>
        <time>2021-05-11T15:26:59+02:00</time>
      </trkpt>
      <trkpt lat="45.97429" lon="6.88784">
        <ele>2231</ele>
        <time>2021-05-11T15:27:04+02:00</time>
      </trkpt>
      <trkpt lat="45.97467" lon="6.88793">
        <ele>2259</ele>
        <time>2021-05-11T15:27:09+02:00</time>
      </trkpt>
      <trkpt lat="45.975" lon="6.88825">
        <ele>2274</ele>
        <time>2021-05-11T15:27:14+02:00</time>
      </trkpt>
      <trkpt lat="45.97511" lon="6.88866">
        <ele>2264</ele>
        <time>2021-05-11T15:27:19+02:00</time>
      </trkpt>
      <trkpt lat="45.97544" lon="6.88877">
        <ele>2273</ele>
        <time>2021-05-11T15:27:24+02:00</time>
      </trkpt>
      <trkpt lat="45.97558" lon="6.88892">
        <ele>2274</ele>
        <time>2021-05-11T15:27:29+02:00</time>
      </trkpt>
      <trkpt lat="45.97592" lon="6.889">
        <ele>2284</ele>
        <time>2021-05-11T15:27:34+02:00</time>
      </trkpt>
      <trkpt lat="45.9761" lon="6.889">
        <ele>2288</ele>
        <time>2021-05-11T15:27:39+02:00</time>
      </trkpt>
      <trkpt lat="45.97629" lon="6.88922">
        <ele>2285</ele>
        <time>2021-05-11T15:27:44+02:00</time>
      </trkpt>
      <trkpt lat="45.97644" lon="6.8896">
        <ele>2272</ele>
        <time>2021-05-11T15:27:49+02:00</time>
      </trkpt>
      <trkpt lat="45.97681" lon="6.89001">
        <ele>2266</ele>
        <time>2021-05-11T15:27:54+02:00</time>
      </trkpt>
      <trkpt lat="45.97713" lon="6.89016">
        <ele>2280</ele>
        <time>2021-05-11T15:27:59+02:00</time>
      </trkpt>
      <trkpt lat="45.97728" lon="6.89046">
        <ele>2280</ele>
        <time>2021-05-11T15:28:04+02:00</time>
      </trkpt>
      <trkpt lat="45.97749" lon="6.89068">
        <ele>2286</ele>
        <time>2021-05-11T15:28:09+02:00</time>
      </trkpt>
      <trkpt lat="45.97792" lon="6.89059">
        <ele>2298</ele>
        <time>2021-05-11T15:28:14+02:00</time>
      </trkpt>
      <trkpt lat="45.97832" lon="6.89055">
        <ele>2308</ele>
        <time>2021-05-11T15:28:19+02:00</time>
      </trkpt>
      <trkpt lat="45.97869" lon="6.89053">
        <ele>2317</ele>
        <time>2021-05-11T15:28:24+02:00</time>
      </trkpt>
      <trkpt lat="45.97904" lon="6.89078">
        <ele>2314</ele>
        <time>2021-05-11T15:28:29+02:00</time>
      </trkpt>
      <trkpt lat="45.97959" lon="6.89081">
        <ele>2328</ele>
        <time>2021-05-11T15:28:34+02:00</time>
      </trkpt>
      <trkpt lat="45.97993" lon="6.89104">
        <ele>2333</ele>
        <time>2021-05-11T15:28:39+02:00</time>
      </trkpt>
      <trkpt lat="45.98009" lon="6.89128">
        <ele>2333</ele>
        <time>2021-05-11T15:28:44+02:00</time>
      </trkpt>
      <trkpt lat="45.98046" lon="6.89137">
        <ele>2341</ele>
        <time>2021-05-11T15:28:49+02:00</time>
      </trkpt>
      <trkpt lat="45.98083" lon="6.89121">
        <ele>2354</ele>
        <time>2021-05-11T15:28:54+02:00</time>
      </trkpt>
      <trkpt lat="45.98116" lon="6.89127">
        <ele>2354</ele>
        <time>2021-05-11T15:28:59+02:00</time>
      </trkpt>
      <trkpt lat="45.98142" lon="6.89187">
        <ele>2353</ele>
        <time>2021-05-11T15:29:04+02:00</time>
      </trkpt>
      <trkpt lat="45.98147" lon="6.892">
        <ele>2352</ele>
        <time>2021-05-11T15:29:09+02:00</time>
      </trkpt>
      <trkpt lat="45.9815" lon="6.89218">
        <ele>2341</ele>
        <time>2021-05-11T15:29:14+02:00</time>
      </trkpt>
      <trkpt lat="45.98134" lon="6.89244">
        <ele>2333</ele>
        <time>2021-05-11T15:29:19+02:00</time>
      </trkpt>
      <trkpt lat="45.98147" lon="6.89261">
        <ele>2330</ele>
        <time>2021-05-11T15:29:24+02:00</time>
      </trkpt>
      <trkpt lat="45.98127" lon="6.89268">
        <ele>2324</ele>
        <time>2021-05-11T15:29:29+02:00</time>
      </trkpt>
      <trkpt lat="45.98129" lon="6.89293">
        <ele>2326</ele>
        <time>2021-05-11T15:29:34+02:00</time>
      </trkpt>
      <trkpt lat="45.98145" lon="6.89325">
        <ele>2310</ele>
        <time>2021-05-11T15:29:39+02:00</time>
      </trkpt>
      <trkpt lat="45.98165" lon="6.89348">
        <ele>2308</ele>
        <time>2021-05-11T15:29:44+02:00</time>
      </trkpt>
      <trkpt lat="45.98171" lon="6.89363">
        <ele>2303</ele>
        <time>2021-05-11T15:29:49+02:00</time>
      </trkpt>
      <trkpt lat="45.98183" lon="6.89364">
        <ele>2302</ele>
        <time>2021-05-11T15:29:54+02:00</time>
      </trkpt>
      <trkpt lat="45.98195" lon="6.89343">
        <ele>2308</ele>
        <time>2021-05-11T15:29:59+02:00</time>
      </trkpt>
      <trkpt lat="45.9821" lon="6.89373">
        <ele>2299</ele>
        <time>2021-05-11T15:30:04+02:00</time>
      </trkpt>
      <trkpt lat="45.98213" lon="6.89414">
        <ele>2287</ele>
        <time>2021-05-11T15:30:09+02:00</time>
      </trkpt>
      <trkpt lat="45.98217" lon="6.89447">
        <ele>2274</ele>
        <time>2021-05-11T15:30:14+02:00</time>
      </trkpt>
      <trkpt lat="45.98213" lon="6.89468">
        <ele>2266</ele>
        <time>2021-05-11T15:30:19+02:00</time>
      </trkpt>
      <trkpt lat="45.9822" lon="6.89489">
        <ele>2259</ele>
        <time>2021-05-11T15:30:24+02:00</time>
      </trkpt>
      <trkpt lat="45.98208" lon="6.89519">
        <ele>2247</ele>
        <time>2021-05-11T15:30:29+02:00</time>
      </trkpt>
      <trkpt lat="45.98199" lon="6.89553">
        <ele>2236</ele>
        <time>2021-05-11T15:30:34+02:00</time>
      </trkpt>
      <trkpt lat="45.98217" lon="6.89584">
        <ele>2232</ele>
        <time>2021-05-11T15:30:39+02:00</time>
      </trkpt>
      <trkpt lat="45.98191" lon="6.89591">
        <ele>2225</ele>
        <time>2021-05-11T15:30:44+02:00</time>
      </trkpt>
      <trkpt lat="45.98191" lon="6.89601">
        <ele>2224</ele>
        <time>2021-05-11T15:30:49+02:00</time>
      </trkpt>
      <trkpt lat="45.98176" lon="6.8961">
        <ele>2220</ele>
        <time>2021-05-11T15:30:54+02:00</time>
      </trkpt>
      <trkpt lat="45.98177" lon="6.89635">
        <ele>2217</ele>
        <time>2021-05-11T15:30:59+02:00</time>
      </trkpt>
      <trkpt lat="45.98181" lon="6.8965">
        <ele>2215</ele>
        <time>2021-05-11T15:31:04+02:00</time>
      </trkpt>
      <trkpt lat="45.98176" lon="6.89664">
        <ele>2212</ele>
        <time>2021-05-11T15:31:09+02:00</time>
      </trkpt>
      <trkpt lat="45.98161" lon="6.89678">
        <ele>2206</ele>
        <time>2021-05-11T15:31:14+02:00</time>
      </trkpt>
      <trkpt lat="45.98162" lon="6.89699">
        <ele>2205</ele>
        <time>2021-05-11T15:31:19+02:00</time>
      </trkpt>
      <trkpt lat="45.98178" lon="6.89754">
        <ele>2203</ele>
        <time>2021-05-11T15:31:24+02:00</time>
      </trkpt>
      <trkpt lat="45.98194" lon="6.89778">
        <ele>2203</ele>
        <time>2021-05-11T15:31:29+02:00</time>
      </trkpt>
      <trkpt lat="45.98219" lon="6.89805">
        <ele>2209</ele>
        <time>2021-05-11T15:31:34+02:00</time>
      </trkpt>
      <trkpt lat="45.9825" lon="6.89818">
        <ele>2222</ele>
        <time>2021-05-11T15:31:39+02:00</time>
      </trkpt>
      <trkpt lat="45.98283" lon="6.89859">
        <ele>2221</ele>
        <time>2021-05-11T15:31:44+02:00</time>
      </trkpt>
      <trkpt lat="45.98292" lon="6.89897">
        <ele>2215</ele>
        <time>2021-05-11T15:31:49+02:00</time>
      </trkpt>
      <trkpt lat="45.98286" lon="6.8993">
        <ele>2208</ele>
        <time>2021-05-11T15:31:54+02:00</time>
      </trkpt>
      <trkpt lat="45.98295" lon="6.89981">
        <ele>2201</ele>
        <time>2021-05-11T15:31:59+02:00</time>
      </trkpt>
      <trkpt lat="45.98277" lon="6.89992">
        <ele>2193</ele>
        <time>2021-05-11T15:32:04+02:00</time>
      </trkpt>
      <trkpt lat="45.98267" lon="6.90028">
        <ele>2183</ele>
        <time>2021-05-11T15:32:09+02:00</time>
      </trkpt>
      <trkpt lat="45.98263" lon="6.90067">
        <ele>2172</ele>
        <time>2021-05-11T15:32:14+02:00</time>
      </trkpt>
      <trkpt lat="45.98268" lon="6.90094">
        <ele>2170</ele>
        <time>2021-05-11T15:32:19+02:00</time>
      </trkpt>
      <trkpt lat="45.98279" lon="6.90122">
        <ele>2173</ele>
        <time>2021-05-11T15:32:24+02:00</time>
      </trkpt>
      <trkpt lat="45.98281" lon="6.90171">
        <ele>2170</ele>
        <time>2021-05-11T15:32:29+02:00</time>
      </trkpt>
      <trkpt lat="45.98277" lon="6.90212">
        <ele>2166</ele>
        <time>2021-05-11T15:32:34+02:00</time>
      </trkpt>
      <trkpt lat="45.9828" lon="6.90243">
        <ele>2166</ele>
        <time>2021-05-11T15:32:39+02:00</time>
      </trkpt>
      <trkpt lat="45.98287" lon="6.90278">
        <ele>2166</ele>
        <time>2021-05-11T15:32:44+02:00</time>
      </trkpt>
      <trkpt lat="45.98287" lon="6.90299">
        <ele>2164</ele>
        <time>2021-05-11T15:32:49+02:00</time>
      </trkpt>
      <trkpt lat="45.98292" lon="6.90323">
        <ele>2163</ele>
        <time>2021-05-11T15:32:54+02:00</time>
      </trkpt>
      <trkpt lat="45.98301" lon="6.90332">
        <ele>2167</ele>
        <time>2021-05-11T15:32:59+02:00</time>
      </trkpt>
      <trkpt lat="45.98315" lon="6.90365">
        <ele>2172</ele>
        <time>2021-05-11T15:33:04+02:00</time>
      </trkpt>
      <trkpt lat="45.98324" lon="6.90386">
        <ele>2174</ele>
        <time>2021-05-11T15:33:09+02:00</time>
      </trkpt>
      <trkpt lat="45.98331" lon="6.90403">
        <ele>2175</ele>
        <time>2021-05-11T15:33:14+02:00</time>
      </trkpt>
      <trkpt lat="45.98341" lon="6.9043">
        <ele>2173</ele>
        <time>2021-05-11T15:33:19+02:00</time>
      </trkpt>
      <trkpt lat="45.98337" lon="6.90451">
        <ele>2171</ele>
        <time>2021-05-11T15:33:24+02:00</time>
      </trkpt>
      <trkpt lat="45.98316" lon="6.90456">
        <ele>2164</ele>
        <time>2021-05-11T15:33:29+02:00</time>
      </trkpt>
      <trkpt lat="45.98309" lon="6.90474">
        <ele>2161</ele>
        <time>2021-05-11T15:33:34+02:00</time>
      </trkpt>
      <trkpt lat="45.98301" lon="6.90481">
        <ele>2158</ele>
        <time>2021-05-11T15:33:39+02:00</time>
      </trkpt>
      <trkpt lat="45.98298" lon="6.90494">
        <ele>2158</ele>
        <time>2021-05-11T15:33:44+02:00</time>
      </trkpt>
      <trkpt lat="45.98286" lon="6.90499">
        <ele>2155</ele>
        <time>2021-05-11T15:33:49+02:00</time>
      </trkpt>
      <trkpt lat="45.98279" lon="6.90516">
        <ele>2152</ele>
        <time>2021-05-11T15:33:54+02:00</time>
      </trkpt>
      <trkpt lat="45.98257" lon="6.90519">
        <ele>2146</ele>
        <time>2021-05-11T15:33:59+02:00</time>
      </trkpt>
      <trkpt lat="45.98242" lon="6.90523">
        <ele>2139</ele>
        <time>2021-05-11T15:34:04+02:00</time>
      </trkpt>
      <trkpt lat="45.98229" lon="6.90573">
        <ele>2125</ele>
        <time>2021-05-11T15:34:09+02:00</time>
      </trkpt>
      <trkpt lat="45.98247" lon="6.90654">
        <ele>2118</ele>
        <time>2021-05-11T15:34:14+02:00</time>
      </trkpt>
      <trkpt lat="45.9823" lon="6.90651">
        <ele>2109</ele>
        <time>2021-05-11T15:34:19+02:00</time>
      </trkpt>
      <trkpt lat="45.98213" lon="6.90631">
        <ele>2102</ele>
        <time>2021-05-11T15:34:24+02:00</time>
      </trkpt>
      <trkpt lat="45.9821" lon="6.90611">
        <ele>2105</ele>
        <time>2021-05-11T15:34:29+02:00</time>
      </trkpt>
      <trkpt lat="45.98182" lon="6.90592">
        <ele>2091</ele>
        <time>2021-05-11T15:34:34+02:00</time>
      </trkpt>
      <trkpt lat="45.98174" lon="6.90559">
        <ele>2090</ele>
        <time>2021-05-11T15:34:39+02:00</time>
      </trkpt>
      <trkpt lat="45.98159" lon="6.9054">
        <ele>2082</ele>
        <time>2021-05-11T15:34:44+02:00</time>
      </trkpt>
      <trkpt lat="45.98152" lon="6.90517">
        <ele>2080</ele>
        <time>2021-05-11T15:34:49+02:00</time>
      </trkpt>
      <trkpt lat="45.9814" lon="6.90517">
        <ele>2072</ele>
        <time>2021-05-11T15:34:54+02:00</time>
      </trkpt>
      <trkpt lat="45.98139" lon="6.9049">
        <ele>2075</ele>
        <time>2021-05-11T15:34:59+02:00</time>
      </trkpt>
      <trkpt lat="45.98127" lon="6.90503">
        <ele>2067</ele>
        <time>2021-05-11T15:35:04+02:00</time>
      </trkpt>
      <trkpt lat="45.98111" lon="6.90491">
        <ele>2059</ele>
        <time>2021-05-11T15:35:09+02:00</time>
      </trkpt>
      <trkpt lat="45.98093" lon="6.90494">
        <ele>2047</ele>
        <time>2021-05-11T15:35:14+02:00</time>
      </trkpt>
      <trkpt lat="45.98079" lon="6.90478">
        <ele>2042</ele>
        <time>2021-05-11T15:35:19+02:00</time>
      </trkpt>
      <trkpt lat="45.98056" lon="6.9047">
        <ele>2031</ele>
        <time>2021-05-11T15:35:24+02:00</time>
      </trkpt>
      <trkpt lat="45.98027" lon="6.90442">
        <ele>2020</ele>
        <time>2021-05-11T15:35:29+02:00</time>
      </trkpt>
      <trkpt lat="45.98021" lon="6.90401">
        <ele>2023</ele>
        <time>2021-05-11T15:35:34+02:00</time>
      </trkpt>
      <trkpt lat="45.98027" lon="6.90381">
        <ele>2028</ele>
        <time>2021-05-11T15:35:39+02:00</time>
      </trkpt>
      <trkpt lat="45.98025" lon="6.90358">
        <ele>2029</ele>
        <time>2021-05-11T15:35:44+02:00</time>
      </trkpt>
      <trkpt lat="45.98008" lon="6.90348">
        <ele>2023</ele>
        <time>2021-05-11T15:35:49+02:00</time>
      </trkpt>
      <trkpt lat="45.97916" lon="6.9036">
        <ele>1996</ele>
        <time>2021-05-11T15:35:54+02:00</time>
      </trkpt>
      <trkpt lat="45.97896" lon="6.90338">
        <ele>1995</ele>
        <time>2021-05-11T15:35:59+02:00</time>
      </trkpt>
      <trkpt lat="45.97887" lon="6.90319">
        <ele>1994</ele>
        <time>2021-05-11T15:36:04+02:00</time>
      </trkpt>
      <trkpt lat="45.97873" lon="6.9029">
        <ele>1990</ele>
        <time>2021-05-11T15:36:09+02:00</time>
      </trkpt>
      <trkpt lat="45.9787" lon="6.90244">
        <ele>1990</ele>
        <time>2021-05-11T15:36:14+02:00</time>
      </trkpt>
      <trkpt lat="45.97876" lon="6.90214">
        <ele>1990</ele>
        <time>2021-05-11T15:36:19+02:00</time>
      </trkpt>
      <trkpt lat="45.9787" lon="6.90176">
        <ele>1985</ele>
        <time>2021-05-11T15:36:24+02:00</time>
      </trkpt>
      <trkpt lat="45.9785" lon="6.9011">
        <ele>1974</ele>
        <time>2021-05-11T15:36:29+02:00</time>
      </trkpt>
      <trkpt lat="45.9783" lon="6.90016">
        <ele>1964</ele>
        <time>2021-05-11T15:36:34+02:00</time>
      </trkpt>
      <trkpt lat="45.97808" lon="6.89981">
        <ele>1959</ele>
        <time>2021-05-11T15:36:39+02:00</time>
      </trkpt>
      <trkpt lat="45.97785" lon="6.89964">
        <ele>1955</ele>
        <time>2021-05-11T15:36:44+02:00</time>
      </trkpt>
      <trkpt lat="45.97775" lon="6.89933">
        <ele>1957</ele>
        <time>2021-05-11T15:36:49+02:00</time>
      </trkpt>
      <trkpt lat="45.9775" lon="6.89924">
        <ele>1953</ele>
        <time>2021-05-11T15:36:54+02:00</time>
      </trkpt>
      <trkpt lat="45.97712" lon="6.89914">
        <ele>1949</ele>
        <time>2021-05-11T15:36:59+02:00</time>
      </trkpt>
      <trkpt lat="45.97693" lon="6.89913">
        <ele>1946</ele>
        <time>2021-05-11T15:37:04+02:00</time>
      </trkpt>
      <trkpt lat="45.97637" lon="6.89884">
        <ele>1948</ele>
        <time>2021-05-11T15:37:09+02:00</time>
      </trkpt>
      <trkpt lat="45.97589" lon="6.89873">
        <ele>1942</ele>
        <time>2021-05-11T15:37:14+02:00</time>
      </trkpt>
      <trkpt lat="45.97555" lon="6.89862">
        <ele>1938</ele>
        <time>2021-05-11T15:37:19+02:00</time>
      </trkpt>
      <trkpt lat="45.9753" lon="6.8985">
        <ele>1936</ele>
        <time>2021-05-11T15:37:24+02:00</time>
      </trkpt>
      <trkpt lat="45.97489" lon="6.89837">
        <ele>1930</ele>
        <time>2021-05-11T15:37:29+02:00</time>
      </trkpt>
      <trkpt lat="45.97478" lon="6.89816">
        <ele>1934</ele>
        <time>2021-05-11T15:37:34+02:00</time>
      </trkpt>
      <trkpt lat="45.97447" lon="6.89793">
        <ele>1937</ele>
        <time>2021-05-11T15:37:39+02:00</time>
      </trkpt>
      <trkpt lat="45.97428" lon="6.89777">
        <ele>1942</ele>
        <time>2021-05-11T15:37:44+02:00</time>
      </trkpt>
      <trkpt lat="45.97401" lon="6.89776">
        <ele>1943</ele>
        <time>2021-05-11T15:37:49+02:00</time>
      </trkpt>
      <trkpt lat="45.97382" lon="6.89777">
        <ele>1945</ele>
        <time>2021-05-11T15:37:54+02:00</time>
      </trkpt>
      <trkpt lat="45.97358" lon="6.89787">
        <ele>1944</ele>
        <time>2021-05-11T15:37:59+02:00</time>
      </trkpt>
      <trkpt lat="45.97342" lon="6.89773">
        <ele>1953</ele>
        <time>2021-05-11T15:38:04+02:00</time>
      </trkpt>
      <trkpt lat="45.97331" lon="6.8978">
        <ele>1950</ele>
        <time>2021-05-11T15:38:09+02:00</time>
      </trkpt>
      <trkpt lat="45.9732" lon="6.89789">
        <ele>1944</ele>
        <time>2021-05-11T15:38:14+02:00</time>
      </trkpt>
      <trkpt lat="45.97291" lon="6.89784">
        <ele>1940</ele>
        <time>2021-05-11T15:38:19+02:00</time>
      </trkpt>
      <trkpt lat="45.9728" lon="6.89753">
        <ele>1948</ele>
        <time>2021-05-11T15:38:24+02:00</time>
      </trkpt>
      <trkpt lat="45.97264" lon="6.89741">
        <ele>1946</ele>
        <time>2021-05-11T15:38:29+02:00</time>
      </trkpt>
      <trkpt lat="45.97256" lon="6.89718">
        <ele>1950</ele>
        <time>2021-05-11T15:38:34+02:00</time>
      </trkpt>
      <trkpt lat="45.97235" lon="6.89691">
        <ele>1949</ele>
        <time>2021-05-11T15:38:39+02:00</time>
      </trkpt>
      <trkpt lat="45.97216" lon="6.89667">
        <ele>1948</ele>
        <time>2021-05-11T15:38:44+02:00</time>
      </trkpt>
      <trkpt lat="45.97193" lon="6.89649">
        <ele>1945</ele>
        <time>2021-05-11T15:38:49+02:00</time>
      </trkpt>
      <trkpt lat="45.97172" lon="6.89621">
        <ele>1945</ele>
        <time>2021-05-11T15:38:54+02:00</time>
      </trkpt>
      <trkpt lat="45.97146" lon="6.89594">
        <ele>1944</ele>
        <time>2021-05-11T15:38:59+02:00</time>
      </trkpt>
      <trkpt lat="45.97143" lon="6.89575">
        <ele>1948</ele>
        <time>2021-05-11T15:39:04+02:00</time>
      </trkpt>
      <trkpt lat="45.97126" lon="6.89556">
        <ele>1948</ele>
        <time>2021-05-11T15:39:09+02:00</time>
      </trkpt>
      <trkpt lat="45.97091" lon="6.89519">
        <ele>1948</ele>
        <time>2021-05-11T15:39:14+02:00</time>
      </trkpt>
      <trkpt lat="45.97065" lon="6.89498">
        <ele>1945</ele>
        <time>2021-05-11T15:39:19+02:00</time>
      </trkpt>
      <trkpt lat="45.97023" lon="6.89474">
        <ele>1938</ele>
        <time>2021-05-11T15:39:24+02:00</time>
      </trkpt>
      <trkpt lat="45.9699" lon="6.89438">
        <ele>1938</ele>
        <time>2021-05-11T15:39:29+02:00</time>
      </trkpt>
      <trkpt lat="45.9695" lon="6.89421">
        <ele>1925</ele>
        <time>2021-05-11T15:39:34+02:00</time>
      </trkpt>
      <trkpt lat="45.96935" lon="6.89405">
        <ele>1919</ele>
        <time>2021-05-11T15:39:39+02:00</time>
      </trkpt>
      <trkpt lat="45.96929" lon="6.89394">
        <ele>1918</ele>
        <time>2021-05-11T15:39:44+02:00</time>
      </trkpt>
      <trkpt lat="45.96917" lon="6.89399">
        <ele>1911</ele>
        <time>2021-05-11T15:39:49+02:00</time>
      </trkpt>
      <trkpt lat="45.96919" lon="6.89309">
        <ele>1917</ele>
        <time>2021-05-11T15:39:54+02:00</time>
      </trkpt>
      <trkpt lat="45.96907" lon="6.89313">
        <ele>1912</ele>
        <time>2021-05-11T15:39:59+02:00</time>
      </trkpt>
      <trkpt lat="45.96899" lon="6.8929">
        <ele>1907</ele>
        <time>2021-05-11T15:40:04+02:00</time>
      </trkpt>
      <trkpt lat="45.96888" lon="6.8926">
        <ele>1900</ele>
        <time>2021-05-11T15:40:09+02:00</time>
      </trkpt>
      <trkpt lat="45.96874" lon="6.8923">
        <ele>1900</ele>
        <time>2021-05-11T15:40:14+02:00</time>
      </trkpt>
      <trkpt lat="45.96856" lon="6.89221">
        <ele>1895</ele>
        <time>2021-05-11T15:40:19+02:00</time>
      </trkpt>
      <trkpt lat="45.9682" lon="6.89211">
        <ele>1884</ele>
        <time>2021-05-11T15:40:24+02:00</time>
      </trkpt>
      <trkpt lat="45.96785" lon="6.89199">
        <ele>1872</ele>
        <time>2021-05-11T15:40:29+02:00</time>
      </trkpt>
      <trkpt lat="45.96755" lon="6.89177">
        <ele>1865</ele>
        <time>2021-05-11T15:40:34+02:00</time>
      </trkpt>
      <trkpt lat="45.96747" lon="6.89143">
        <ele>1869</ele>
        <time>2021-05-11T15:40:39+02:00</time>
      </trkpt>
      <trkpt lat="45.96734" lon="6.89124">
        <ele>1868</ele>
        <time>2021-05-11T15:40:44+02:00</time>
      </trkpt>
      <trkpt lat="45.96712" lon="6.89109">
        <ele>1863</ele>
        <time>2021-05-11T15:40:49+02:00</time>
      </trkpt>
      <trkpt lat="45.96694" lon="6.89085">
        <ele>1862</ele>
        <time>2021-05-11T15:40:54+02:00</time>
      </trkpt>
      <trkpt lat="45.96674" lon="6.89061">
        <ele>1861</ele>
        <time>2021-05-11T15:40:59+02:00</time>
      </trkpt>
      <trkpt lat="45.96665" lon="6.89037">
        <ele>1863</ele>
        <time>2021-05-11T15:41:04+02:00</time>
      </trkpt>
      <trkpt lat="45.96651" lon="6.89016">
        <ele>1864</ele>
        <time>2021-05-11T15:41:09+02:00</time>
      </trkpt>
      <trkpt lat="45.96631" lon="6.89003">
        <ele>1860</ele>
        <time>2021-05-11T15:41:14+02:00</time>
      </trkpt>
      <trkpt lat="45.96595" lon="6.88973">
        <ele>1855</ele>
        <time>2021-05-11T15:41:19+02:00</time>
      </trkpt>
      <trkpt lat="45.96563" lon="6.88953">
        <ele>1851</ele>
        <time>2021-05-11T15:41:24+02:00</time>
      </trkpt>
      <trkpt lat="45.96552" lon="6.88937">
        <ele>1852</ele>
        <time>2021-05-11T15:41:29+02:00</time>
      </trkpt>
      <trkpt lat="45.96526" lon="6.88939">
        <ele>1843</ele>
        <time>2021-05-11T15:41:34+02:00</time>
      </trkpt>
      <trkpt lat="45.96509" lon="6.88916">
        <ele>1844</ele>
        <time>2021-05-11T15:41:39+02:00</time>
      </trkpt>
      <trkpt lat="45.96492" lon="6.88907">
        <ele>1842</ele>
        <time>2021-05-11T15:41:44+02:00</time>
      </trkpt>
      <trkpt lat="45.96478" lon="6.88865">
        <ele>1853</ele>
        <time>2021-05-11T15:41:49+02:00</time>
      </trkpt>
      <trkpt lat="45.96432" lon="6.88821">
        <ele>1854</ele>
        <time>2021-05-11T15:41:54+02:00</time>
      </trkpt>
      <trkpt lat="45.96408" lon="6.88774">
        <ele>1858</ele>
        <time>2021-05-11T15:41:59+02:00</time>
      </trkpt>
      <trkpt lat="45.96345" lon="6.88716">
        <ele>1853</ele>
        <time>2021-05-11T15:42:04+02:00</time>
      </trkpt>
      <trkpt lat="45.96275" lon="6.8869">
        <ele>1852</ele>
        <time>2021-05-11T15:42:09+02:00</time>
      </trkpt>
      <trkpt lat="45.96221" lon="6.88703">
        <ele>1857</ele>
        <time>2021-05-11T15:42:14+02:00</time>
      </trkpt>
      <trkpt lat="45.96201" lon="6.88735">
        <ele>1855</ele>
        <time>2021-05-11T15:42:19+02:00</time>
      </trkpt>
      <trkpt lat="45.96178" lon="6.88743">
        <ele>1855</ele>
        <time>2021-05-11T15:42:24+02:00</time>
      </trkpt>
      <trkpt lat="45.9614" lon="6.88742">
        <ele>1861</ele>
        <time>2021-05-11T15:42:29+02:00</time>
      </trkpt>
      <trkpt lat="45.96102" lon="6.88762">
        <ele>1861</ele>
        <time>2021-05-11T15:42:34+02:00</time>
      </trkpt>
      <trkpt lat="45.96055" lon="6.88769">
        <ele>1861</ele>
        <time>2021-05-11T15:42:39+02:00</time>
      </trkpt>
      <trkpt lat="45.96038" lon="6.88774">
        <ele>1859</ele>
        <time>2021-05-11T15:42:44+02:00</time>
      </trkpt>
      <trkpt lat="45.96027" lon="6.88768">
        <ele>1862</ele>
        <time>2021-05-11T15:42:49+02:00</time>
      </trkpt>
      <trkpt lat="45.9603" lon="6.88759">
        <ele>1865</ele>
        <time>2021-05-11T15:42:54+02:00</time>
      </trkpt>
      <trkpt lat="45.96067" lon="6.88736">
        <ele>1870</ele>
        <time>2021-05-11T15:42:59+02:00</time>
      </trkpt>
      <trkpt lat="45.961" lon="6.88708">
        <ele>1877</ele>
        <time>2021-05-11T15:43:04+02:00</time>
      </trkpt>
      <trkpt lat="45.96105" lon="6.88689">
        <ele>1884</ele>
        <time>2021-05-11T15:43:09+02:00</time>
      </trkpt>
      <trkpt lat="45.9607" lon="6.88678">
        <ele>1895</ele>
        <time>2021-05-11T15:43:14+02:00</time>
      </trkpt>
      <trkpt lat="45.96055" lon="6.8867">
        <ele>1899</ele>
        <time>2021-05-11T15:43:19+02:00</time>
      </trkpt>
      <trkpt lat="45.96036" lon="6.88676">
        <ele>1897</ele>
        <time>2021-05-11T15:43:24+02:00</time>
      </trkpt>
    </trkseg>
  </trk>
</gpx>